createdAt,value
2023-08-07T00:00:26.224Z,100.00
2023-08-07T00:03:30.954Z,99.35
2023-08-07T00:06:34.141Z,100.00
2023-08-07T00:09:37.679Z,100.00
2023-08-07T00:12:40.856Z,99.99
2023-08-07T00:15:44.445Z,99.87
2023-08-07T00:18:47.637Z,100.00
2023-08-07T00:21:51.037Z,100.00
2023-08-07T00:24:54.187Z,100.00
2023-08-07T00:27:57.780Z,100.00
2023-08-07T00:31:01.056Z,100.00
2023-08-07T00:34:05.438Z,100.00
2023-08-07T00:37:08.693Z,100.00
2023-08-07T00:40:12.619Z,100.00
2023-08-07T00:43:15.765Z,100.00
2023-08-07T00:46:20.464Z,100.00
2023-08-07T00:49:24.825Z,100.00
2023-08-07T00:52:28.321Z,100.00
2023-08-07T00:55:31.549Z,100.00
2023-08-07T00:58:35.276Z,100.00
2023-08-07T01:01:39.448Z,100.00
2023-08-07T01:04:43.044Z,100.00
2023-08-07T01:07:48.522Z,100.00
2023-08-07T01:11:18.395Z,100.00
2023-08-07T01:14:35.438Z,100.00
2023-08-07T01:17:39.109Z,100.00
2023-08-07T01:20:42.459Z,100.00
2023-08-07T01:23:48.240Z,100.00
2023-08-07T01:26:53.899Z,100.00
2023-08-07T01:30:13.430Z,100.00
2023-08-07T01:33:27.026Z,100.00
2023-08-07T01:36:31.192Z,100.00
2023-08-07T01:39:35.845Z,100.00
2023-08-07T01:42:39.558Z,100.00
2023-08-07T01:45:42.806Z,100.00
2023-08-07T01:48:47.287Z,100.00
2023-08-07T01:51:52.417Z,100.00
2023-08-07T01:54:55.908Z,99.20
2023-08-07T01:57:59.830Z,99.41
2023-08-07T02:01:03.557Z,100.00
2023-08-07T02:04:07.005Z,98.17
2023-08-07T02:07:10.246Z,98.08
2023-08-07T02:10:13.811Z,97.91
2023-08-07T02:13:17.000Z,98.13
2023-08-07T02:16:20.581Z,99.05
2023-08-07T02:19:24.067Z,96.21
2023-08-07T02:22:27.268Z,96.02
2023-08-07T02:25:30.878Z,94.20
2023-08-07T02:28:34.400Z,95.41
2023-08-07T02:31:38.244Z,93.29
2023-08-07T02:34:41.725Z,93.63
2023-08-07T02:37:46.496Z,93.35
2023-08-07T02:40:49.684Z,94.13
2023-08-07T02:43:53.668Z,94.79
2023-08-07T02:46:57.233Z,94.19
2023-08-07T02:50:02.055Z,94.13
2023-08-07T02:53:06.463Z,93.80
2023-08-07T02:56:10.333Z,93.95
2023-08-07T02:59:13.548Z,93.63
2023-08-07T03:02:16.865Z,93.46
2023-08-07T03:05:20.166Z,92.72
2023-08-07T03:08:23.936Z,93.24
2023-08-07T03:11:27.134Z,93.48
2023-08-07T03:14:31.289Z,94.50
2023-08-07T03:17:34.474Z,95.70
2023-08-07T03:23:47.116Z,94.20
2023-08-07T03:26:50.687Z,95.34
2023-08-07T03:29:54.265Z,95.79
2023-08-07T03:33:00.318Z,96.25
2023-08-07T03:36:05.495Z,97.09
2023-08-07T03:39:09.228Z,98.44
2023-08-07T03:42:13.775Z,98.04
2023-08-07T03:45:18.802Z,99.73
2023-08-07T03:48:21.949Z,98.68
2023-08-07T03:51:27.239Z,98.87
2023-08-07T03:54:31.791Z,99.80
2023-08-07T03:57:35.407Z,98.85
2023-08-07T04:00:38.502Z,98.58
2023-08-07T04:03:42.303Z,99.29
2023-08-07T04:06:45.757Z,100.00
2023-08-07T04:09:49.426Z,98.73
2023-08-07T04:12:52.566Z,99.84
2023-08-07T04:15:56.382Z,99.08
2023-08-07T04:18:59.814Z,98.75
2023-08-07T04:22:03.214Z,99.20
2023-08-07T04:25:06.771Z,98.27
2023-08-07T04:28:10.401Z,98.59
2023-08-07T04:31:14.022Z,99.66
2023-08-07T04:34:30.422Z,99.01
2023-08-07T04:37:33.654Z,97.96
2023-08-07T04:40:37.253Z,98.00
2023-08-07T04:43:40.480Z,96.71
2023-08-07T04:46:44.108Z,95.86
2023-08-07T04:49:47.464Z,96.12
2023-08-07T04:52:51.081Z,94.70
2023-08-07T04:55:54.333Z,94.33
2023-08-07T04:58:57.702Z,94.17
2023-08-07T05:02:01.555Z,95.07
2023-08-07T05:05:05.896Z,94.71
2023-08-07T05:08:08.908Z,92.98
2023-08-07T05:11:12.876Z,93.23
2023-08-07T05:14:16.169Z,92.92
2023-08-07T05:17:19.808Z,93.13
2023-08-07T05:20:23.409Z,92.84
2023-08-07T05:23:29.745Z,91.64
2023-08-07T05:26:32.823Z,91.14
2023-08-07T05:29:44.697Z,89.58
2023-08-07T05:32:54.410Z,88.95
2023-08-07T05:35:57.947Z,89.14
2023-08-07T05:39:01.330Z,87.54
2023-08-07T05:42:06.335Z,86.19
2023-08-07T05:45:10.259Z,85.35
2023-08-07T05:48:14.350Z,84.87
2023-08-07T05:51:18.329Z,82.65
2023-08-07T05:54:23.528Z,83.70
2023-08-07T05:57:26.790Z,82.29
2023-08-07T06:00:31.246Z,82.36
2023-08-07T06:03:35.957Z,82.97
2023-08-07T06:06:41.010Z,83.23
2023-08-07T06:09:44.401Z,82.82
2023-08-07T06:12:47.654Z,82.45
2023-08-07T06:15:51.273Z,81.19
2023-08-07T06:18:54.693Z,80.69
2023-08-07T06:21:58.909Z,81.17
2023-08-07T06:25:02.604Z,79.06
2023-08-07T06:28:06.158Z,79.34
2023-08-07T06:31:11.986Z,77.42
2023-08-07T06:34:15.374Z,78.42
2023-08-07T06:37:18.472Z,76.87
2023-08-07T06:40:22.094Z,77.39
2023-08-07T06:43:25.312Z,76.86
2023-08-07T06:46:29.212Z,76.94
2023-08-07T06:49:36.090Z,78.07
2023-08-07T06:52:39.967Z,76.53
2023-08-07T06:55:46.432Z,76.84
2023-08-07T06:58:51.461Z,78.44
2023-08-07T07:01:54.595Z,79.49
2023-08-07T07:04:58.536Z,80.98
2023-08-07T07:08:04.071Z,78.89
2023-08-07T07:11:09.617Z,77.36
2023-08-07T07:14:14.453Z,76.85
2023-08-07T07:17:17.901Z,75.43
2023-08-07T07:20:21.680Z,74.43
2023-08-07T07:23:25.260Z,76.14
2023-08-07T07:26:29.073Z,76.56
2023-08-07T07:29:32.613Z,76.19
2023-08-07T07:32:36.077Z,75.79
2023-08-07T07:35:40.355Z,73.28
2023-08-07T07:38:46.550Z,72.90
2023-08-07T07:41:51.417Z,72.37
2023-08-07T07:44:54.768Z,72.05
2023-08-07T07:47:58.362Z,72.86
2023-08-07T07:51:05.328Z,73.72
2023-08-07T07:54:15.012Z,75.79
2023-08-07T07:57:19.133Z,74.73
2023-08-07T08:00:27.388Z,77.66
2023-08-07T08:03:30.926Z,77.13
2023-08-07T08:06:34.284Z,74.55
2023-08-07T08:09:37.810Z,73.45
2023-08-07T08:12:41.082Z,72.05
2023-08-07T08:15:45.219Z,72.06
2023-08-07T08:18:58.804Z,72.14
2023-08-07T08:22:02.654Z,72.49
2023-08-07T08:25:07.752Z,72.03
2023-08-07T08:28:11.613Z,72.43
2023-08-07T08:31:14.810Z,71.74
2023-08-07T08:34:18.450Z,72.17
2023-08-07T08:37:22.010Z,71.12
2023-08-07T08:40:25.918Z,71.33
2023-08-07T08:43:31.769Z,71.82
2023-08-07T08:46:36.113Z,71.95
2023-08-07T08:49:47.529Z,70.39
2023-08-07T08:52:52.746Z,71.79
2023-08-07T08:55:56.228Z,70.04
2023-08-07T08:58:59.776Z,70.13
2023-08-07T09:02:03.146Z,69.44
2023-08-07T09:05:06.989Z,71.33
2023-08-07T09:08:11.300Z,71.30
2023-08-07T09:11:15.281Z,71.92
2023-08-07T09:14:23.735Z,70.70
2023-08-07T09:17:31.062Z,71.09
2023-08-07T09:20:35.493Z,69.95
2023-08-07T09:23:39.626Z,69.45
2023-08-07T09:26:45.343Z,68.79
2023-08-07T09:29:56.231Z,69.23
2023-08-07T09:33:00.686Z,75.26
2023-08-07T09:36:04.861Z,82.28
2023-08-07T09:39:08.089Z,81.41
2023-08-07T09:42:18.409Z,76.41
2023-08-07T09:45:21.926Z,72.28
2023-08-07T09:48:26.835Z,70.69
2023-08-07T09:51:42.583Z,68.85
2023-08-07T09:54:46.110Z,69.09
2023-08-07T09:57:50.269Z,69.48
2023-08-07T10:01:00.902Z,69.63
2023-08-07T10:04:04.713Z,69.99
2023-08-07T10:07:12.011Z,70.71
2023-08-07T10:10:15.787Z,73.32
2023-08-07T10:13:23.586Z,73.79
2023-08-07T10:16:32.288Z,75.34
2023-08-07T10:19:35.582Z,75.11
2023-08-07T10:22:40.064Z,73.67
2023-08-07T10:25:46.228Z,73.65
2023-08-07T10:28:51.746Z,77.16
2023-08-07T10:31:57.527Z,88.16
2023-08-07T10:35:06.698Z,97.58
2023-08-07T10:38:13.134Z,100.00
2023-08-07T10:41:16.989Z,100.00
2023-08-07T10:44:20.752Z,100.00
2023-08-07T10:47:36.274Z,100.00
2023-08-07T10:50:53.175Z,100.00
2023-08-07T10:53:57.946Z,100.00
2023-08-07T10:57:01.182Z,100.00
2023-08-07T11:00:12.203Z,100.00
2023-08-07T11:03:27.300Z,96.94
2023-08-07T11:06:35.391Z,96.75
2023-08-07T11:09:38.740Z,94.21
2023-08-07T11:12:42.826Z,93.22
2023-08-07T11:15:47.677Z,95.90
2023-08-07T11:18:51.289Z,95.59
2023-08-07T11:21:55.688Z,94.23
2023-08-07T11:24:59.130Z,90.09
2023-08-07T11:28:02.156Z,90.03
2023-08-07T11:31:05.939Z,91.46
2023-08-07T11:34:09.290Z,93.73
2023-08-07T11:37:18.001Z,93.42
2023-08-07T11:40:21.700Z,90.13
2023-08-07T11:43:25.164Z,89.27
2023-08-07T11:46:29.119Z,87.18
2023-08-07T11:49:34.565Z,88.17
2023-08-07T11:52:38.080Z,89.90
2023-08-07T11:55:54.853Z,89.56
2023-08-07T11:59:02.709Z,89.46
2023-08-07T12:02:13.177Z,87.92
2023-08-07T12:05:16.648Z,87.94
2023-08-07T12:08:20.739Z,86.84
2023-08-07T12:11:25.196Z,86.18
2023-08-07T12:14:32.149Z,85.25
2023-08-07T12:17:37.414Z,82.89
2023-08-07T12:20:40.458Z,79.98
2023-08-07T12:23:45.512Z,79.27
2023-08-07T12:26:48.740Z,79.59
2023-08-07T12:29:52.247Z,79.46
2023-08-07T12:32:55.592Z,79.72
2023-08-07T12:35:59.757Z,80.15
2023-08-07T12:39:02.923Z,79.83
2023-08-07T12:45:14.943Z,81.61
2023-08-07T12:48:20.232Z,82.17
2023-08-07T12:51:23.655Z,83.57
2023-08-07T12:54:27.195Z,84.92
2023-08-07T12:57:31.589Z,84.21
2023-08-07T13:00:35.321Z,86.15
2023-08-07T13:03:39.074Z,89.47
2023-08-07T13:06:42.838Z,91.47
2023-08-07T13:09:46.062Z,95.38
2023-08-07T13:12:50.831Z,98.13
2023-08-07T13:15:55.640Z,100.00
2023-08-07T13:18:59.364Z,100.00
2023-08-07T13:22:02.754Z,100.00
2023-08-07T13:25:08.845Z,100.00
2023-08-07T13:28:12.167Z,98.89
2023-08-07T13:31:15.825Z,96.83
2023-08-07T13:34:18.937Z,97.50
2023-08-07T13:37:25.107Z,98.19
2023-08-07T13:40:28.313Z,98.20
2023-08-07T13:43:31.926Z,99.62
2023-08-07T13:46:35.717Z,99.13
2023-08-07T13:49:40.768Z,98.97
2023-08-07T13:52:45.334Z,99.05
2023-08-07T13:55:49.458Z,99.41
2023-08-07T13:58:56.243Z,95.88
2023-08-07T14:02:01.183Z,96.91
2023-08-07T14:05:07.313Z,96.61
2023-08-07T14:08:12.801Z,96.63
2023-08-07T14:11:17.200Z,96.16
2023-08-07T14:14:21.879Z,95.77
2023-08-07T14:17:27.509Z,96.12
2023-08-07T14:20:30.698Z,96.15
2023-08-07T14:23:34.852Z,96.77
2023-08-07T14:26:38.313Z,96.57
2023-08-07T14:29:41.850Z,96.57
2023-08-07T14:32:45.368Z,95.85
2023-08-07T14:35:48.919Z,95.43
2023-08-07T14:38:52.110Z,95.94
2023-08-07T14:41:56.435Z,96.14
2023-08-07T14:44:59.870Z,97.37
2023-08-07T14:48:03.345Z,98.25
2023-08-07T14:51:06.998Z,97.58
2023-08-07T14:54:10.672Z,97.72
2023-08-07T14:57:14.309Z,99.25
2023-08-07T15:00:19.469Z,98.47
2023-08-07T15:03:23.119Z,99.88
2023-08-07T15:06:26.752Z,99.38
2023-08-07T15:09:30.585Z,98.11
2023-08-07T15:12:34.203Z,98.63
2023-08-07T15:15:37.469Z,97.90
2023-08-07T15:18:42.007Z,97.71
2023-08-07T15:21:45.530Z,97.72
2023-08-07T15:24:50.332Z,97.02
2023-08-07T15:27:53.722Z,96.99
2023-08-07T15:30:57.875Z,97.73
2023-08-07T15:34:01.360Z,98.05
2023-08-07T15:37:05.395Z,97.28
2023-08-07T15:40:09.645Z,96.94
2023-08-07T15:43:13.933Z,93.79
2023-08-07T15:46:18.630Z,90.74
2023-08-07T15:49:22.513Z,90.40
2023-08-07T15:52:26.773Z,87.53
2023-08-07T15:55:32.505Z,88.44
2023-08-07T15:58:36.027Z,91.72
2023-08-07T16:01:39.578Z,89.81
2023-08-07T16:04:42.825Z,90.21
2023-08-07T16:07:45.804Z,91.91
2023-08-07T16:10:54.192Z,91.21
2023-08-07T16:13:57.435Z,90.99
2023-08-07T16:17:01.143Z,93.13
2023-08-07T16:20:04.737Z,92.49
2023-08-07T16:23:08.565Z,91.94
2023-08-07T16:26:13.012Z,92.01
2023-08-07T16:29:18.908Z,90.25
2023-08-07T16:32:23.678Z,89.18
2023-08-07T16:35:29.612Z,88.24
2023-08-07T16:38:34.653Z,84.87
2023-08-07T16:41:42.086Z,80.12
2023-08-07T16:44:46.485Z,82.76
2023-08-07T16:47:51.382Z,85.27
2023-08-07T16:51:07.936Z,86.31
2023-08-07T16:54:18.774Z,87.25
2023-08-07T16:57:23.005Z,83.77
2023-08-07T17:00:27.011Z,76.42
2023-08-07T17:03:31.618Z,73.61
2023-08-07T17:10:02.383Z,80.39
2023-08-07T17:13:07.337Z,85.26
2023-08-07T17:16:11.875Z,85.80
2023-08-07T17:19:15.922Z,87.84
2023-08-07T17:22:19.274Z,87.36
2023-08-07T17:25:23.899Z,84.43
2023-08-07T17:28:27.428Z,85.18
2023-08-07T17:31:33.251Z,85.15
2023-08-07T17:34:37.517Z,85.61
2023-08-07T17:37:41.967Z,86.13
2023-08-07T17:40:49.002Z,86.01
2023-08-07T17:43:53.358Z,85.65
2023-08-07T17:46:57.691Z,84.40
2023-08-07T17:50:02.805Z,86.84
2023-08-07T17:53:06.587Z,89.17
2023-08-07T17:56:10.952Z,88.38
2023-08-07T17:59:15.117Z,90.76
2023-08-07T18:02:19.583Z,93.79
2023-08-07T18:05:26.121Z,94.72
2023-08-07T18:08:30.701Z,94.63
2023-08-07T18:11:35.555Z,98.58
2023-08-07T18:14:41.060Z,97.59
2023-08-07T18:17:46.017Z,97.89
2023-08-07T18:20:49.457Z,98.95
2023-08-07T18:23:53.747Z,99.99
2023-08-07T18:26:57.969Z,100.00
2023-08-07T18:30:06.705Z,100.00
2023-08-07T18:33:09.921Z,100.00
2023-08-07T18:36:16.631Z,100.00
2023-08-07T18:39:20.216Z,100.00
2023-08-07T18:42:23.628Z,99.85
2023-08-07T18:45:27.878Z,100.00
2023-08-07T18:48:31.102Z,99.62
2023-08-07T18:51:38.974Z,99.35
2023-08-07T18:54:42.294Z,98.90
2023-08-07T18:57:45.390Z,99.12
2023-08-07T19:00:49.517Z,98.87
2023-08-07T19:03:54.053Z,100.00
2023-08-07T19:06:58.225Z,100.00
2023-08-07T19:10:03.174Z,100.00
2023-08-07T19:13:07.489Z,100.00
2023-08-07T19:16:14.634Z,100.00
2023-08-07T19:19:18.224Z,100.00
2023-08-07T19:22:22.638Z,100.00
2023-08-07T19:25:31.559Z,100.00
2023-08-07T19:28:37.112Z,100.00
2023-08-07T19:31:43.716Z,100.00
2023-08-07T19:34:49.779Z,100.00
2023-08-07T19:37:54.650Z,100.00
2023-08-07T19:41:00.647Z,99.65
2023-08-07T19:44:06.277Z,100.00
2023-08-07T19:47:16.366Z,99.65
2023-08-07T19:50:28.008Z,100.00
2023-08-07T19:53:33.401Z,100.00
2023-08-07T19:56:38.097Z,100.00
2023-08-07T19:59:41.744Z,100.00
2023-08-07T20:02:46.612Z,100.00
2023-08-07T20:05:50.805Z,100.00
2023-08-07T20:08:54.252Z,100.00
2023-08-07T20:11:58.596Z,100.00
2023-08-07T20:15:03.533Z,100.00
2023-08-07T20:18:07.908Z,100.00
2023-08-07T20:21:14.972Z,100.00
2023-08-07T20:24:21.246Z,100.00
2023-08-07T20:27:24.928Z,100.00
2023-08-07T20:30:30.562Z,100.00
2023-08-07T20:33:35.303Z,100.00
2023-08-07T20:36:41.000Z,100.00
2023-08-07T20:39:46.558Z,100.00
2023-08-07T20:42:52.170Z,99.95
2023-08-07T20:45:55.904Z,100.00
2023-08-07T20:49:00.511Z,100.00
2023-08-07T20:52:06.906Z,100.00
2023-08-07T20:55:11.129Z,100.00
2023-08-07T20:58:16.098Z,100.00
2023-08-07T21:01:19.560Z,100.00
2023-08-07T21:04:24.482Z,100.00
2023-08-07T21:07:28.124Z,100.00
2023-08-07T21:10:31.363Z,100.00
2023-08-07T21:13:39.238Z,100.00
2023-08-07T21:16:45.421Z,100.00
2023-08-07T21:19:50.817Z,100.00
2023-08-07T21:22:55.580Z,99.84
2023-08-07T21:25:59.304Z,99.97
2023-08-07T21:29:03.078Z,99.97
2023-08-07T21:32:08.341Z,99.98
2023-08-07T21:35:12.437Z,99.99
2023-08-07T21:38:16.053Z,100.00
2023-08-07T21:41:19.312Z,100.00
2023-08-07T21:44:22.992Z,100.00
2023-08-07T21:47:26.294Z,100.00
2023-08-07T21:50:29.885Z,100.00
2023-08-07T21:53:33.190Z,99.78
2023-08-07T21:56:38.552Z,100.00
2023-08-07T21:59:41.830Z,100.00
2023-08-07T22:02:48.129Z,99.98
2023-08-07T22:05:52.699Z,100.00
2023-08-07T22:08:56.064Z,100.00
2023-08-07T22:12:00.111Z,100.00
2023-08-07T22:15:05.018Z,100.00
2023-08-07T22:18:08.445Z,100.00
2023-08-07T22:21:11.993Z,100.00
2023-08-07T22:24:17.140Z,100.00
2023-08-07T22:27:20.262Z,100.00
2023-08-07T22:30:24.974Z,100.00
2023-08-07T22:33:28.214Z,100.00
2023-08-07T22:36:31.802Z,100.00
2023-08-07T22:39:35.567Z,100.00
2023-08-07T22:42:39.164Z,100.00
2023-08-07T22:45:43.838Z,100.00
2023-08-07T22:48:47.581Z,100.00
2023-08-07T22:51:50.788Z,100.00
2023-08-07T22:54:54.286Z,100.00
2023-08-07T22:57:57.974Z,100.00
2023-08-07T23:01:02.517Z,100.00
2023-08-07T23:04:18.856Z,100.00
2023-08-07T23:07:22.187Z,100.00
2023-08-07T23:10:25.460Z,100.00
2023-08-07T23:13:28.976Z,100.00
2023-08-07T23:16:32.273Z,100.00
2023-08-07T23:19:35.769Z,100.00
2023-08-07T23:22:39.186Z,100.00
2023-08-07T23:25:42.839Z,100.00
2023-08-07T23:28:46.014Z,100.00
2023-08-07T23:31:50.546Z,100.00
2023-08-07T23:34:53.766Z,100.00
2023-08-07T23:37:57.412Z,100.00
2023-08-07T23:41:00.512Z,100.00
2023-08-07T23:44:04.520Z,100.00
2023-08-07T23:47:09.172Z,100.00
2023-08-07T23:50:12.780Z,100.00
2023-08-07T23:53:15.953Z,100.00
2023-08-07T23:56:19.378Z,100.00
2023-08-07T23:59:22.779Z,100.00
